sensor_id;sensor_type;location;lat;lon;timestamp;P1;durP1;ratioP1;P2;durP2;ratioP2
351;SDS011;164;50.784;6.496;2024-03-06T00:02:01;5.97;;;4.25;;
351;SDS011;164;50.784;6.496;2024-03-06T00:04:29;6.47;;;3.90;;
351;SDS011;164;50.784;6.496;2024-03-06T00:06:56;4.38;;;3.85;;
351;SDS011;164;50.784;6.496;2024-03-06T00:09:24;4.70;;;3.58;;
351;SDS011;164;50.784;6.496;2024-03-06T00:11:52;6.35;;;4.53;;
351;SDS011;164;50.784;6.496;2024-03-06T00:14:19;3.83;;;3.15;;
351;SDS011;164;50.784;6.496;2024-03-06T00:16:47;4.85;;;3.17;;
351;SDS011;164;50.784;6.496;2024-03-06T00:19:16;4.88;;;3.53;;
351;SDS011;164;50.784;6.496;2024-03-06T00:21:44;3.13;;;2.97;;
351;SDS011;164;50.784;6.496;2024-03-06T00:24:11;3.90;;;2.95;;
351;SDS011;164;50.784;6.496;2024-03-06T00:26:39;3.30;;;2.85;;
351;SDS011;164;50.784;6.496;2024-03-06T00:29:06;2.85;;;2.70;;
351;SDS011;164;50.784;6.496;2024-03-06T00:31:33;2.88;;;2.63;;
351;SDS011;164;50.784;6.496;2024-03-06T00:34:01;6.38;;;3.13;;
351;SDS011;164;50.784;6.496;2024-03-06T00:36:29;2.60;;;2.22;;
351;SDS011;164;50.784;6.496;2024-03-06T00:38:57;2.13;;;2.00;;
351;SDS011;164;50.784;6.496;2024-03-06T00:41:24;2.47;;;2.30;;
351;SDS011;164;50.784;6.496;2024-03-06T00:43:51;3.78;;;2.80;;
351;SDS011;164;50.784;6.496;2024-03-06T00:46:19;2.60;;;2.05;;
351;SDS011;164;50.784;6.496;2024-03-06T00:48:47;2.00;;;1.90;;
351;SDS011;164;50.784;6.496;2024-03-06T00:51:14;2.90;;;2.70;;
351;SDS011;164;50.784;6.496;2024-03-06T00:53:43;3.25;;;2.40;;
351;SDS011;164;50.784;6.496;2024-03-06T00:56:11;2.72;;;2.25;;
351;SDS011;164;50.784;6.496;2024-03-06T00:58:37;2.65;;;2.20;;
351;SDS011;164;50.784;6.496;2024-03-06T01:01:05;2.58;;;2.38;;
351;SDS011;164;50.784;6.496;2024-03-06T01:03:32;2.88;;;2.42;;
351;SDS011;164;50.784;6.496;2024-03-06T01:05:59;2.63;;;2.33;;
351;SDS011;164;50.784;6.496;2024-03-06T01:08:27;1.70;;;1.65;;
351;SDS011;164;50.784;6.496;2024-03-06T01:10:57;3.15;;;2.28;;
351;SDS011;164;50.784;6.496;2024-03-06T01:13:24;4.28;;;2.60;;
351;SDS011;164;50.784;6.496;2024-03-06T01:15:52;3.35;;;2.35;;
351;SDS011;164;50.784;6.496;2024-03-06T01:18:22;1.83;;;1.73;;
351;SDS011;164;50.784;6.496;2024-03-06T01:20:49;6.63;;;2.25;;
351;SDS011;164;50.784;6.496;2024-03-06T01:23:16;1.83;;;1.73;;
351;SDS011;164;50.784;6.496;2024-03-06T01:25:44;2.17;;;1.67;;
351;SDS011;164;50.784;6.496;2024-03-06T01:28:12;1.98;;;1.85;;
351;SDS011;164;50.784;6.496;2024-03-06T01:30:39;2.63;;;1.80;;
351;SDS011;164;50.784;6.496;2024-03-06T01:33:07;2.05;;;1.92;;
351;SDS011;164;50.784;6.496;2024-03-06T01:35:34;1.85;;;1.45;;
351;SDS011;164;50.784;6.496;2024-03-06T01:38:02;4.78;;;2.30;;
351;SDS011;164;50.784;6.496;2024-03-06T01:40:29;1.70;;;1.60;;
351;SDS011;164;50.784;6.496;2024-03-06T01:42:56;1.40;;;1.33;;
351;SDS011;164;50.784;6.496;2024-03-06T01:45:25;2.97;;;2.00;;
351;SDS011;164;50.784;6.496;2024-03-06T01:47:52;1.83;;;1.73;;
351;SDS011;164;50.784;6.496;2024-03-06T01:50:20;1.85;;;1.75;;
351;SDS011;164;50.784;6.496;2024-03-06T01:52:47;1.58;;;1.38;;
351;SDS011;164;50.784;6.496;2024-03-06T01:55:14;1.90;;;1.50;;
351;SDS011;164;50.784;6.496;2024-03-06T01:57:42;2.65;;;2.35;;
351;SDS011;164;50.784;6.496;2024-03-06T02:00:10;2.45;;;1.90;;
351;SDS011;164;50.784;6.496;2024-03-06T02:02:42;4.50;;;2.20;;
351;SDS011;164;50.784;6.496;2024-03-06T02:05:10;2.13;;;1.20;;
351;SDS011;164;50.784;6.496;2024-03-06T02:07:38;1.42;;;1.35;;
351;SDS011;164;50.784;6.496;2024-03-06T02:10:07;1.50;;;1.30;;
351;SDS011;164;50.784;6.496;2024-03-06T02:12:37;1.50;;;1.40;;
351;SDS011;164;50.784;6.496;2024-03-06T02:15:06;1.85;;;1.42;;
351;SDS011;164;50.784;6.496;2024-03-06T02:17:34;3.90;;;1.90;;
351;SDS011;164;50.784;6.496;2024-03-06T02:20:02;1.67;;;1.30;;
351;SDS011;164;50.784;6.496;2024-03-06T02:22:33;3.58;;;1.73;;
351;SDS011;164;50.784;6.496;2024-03-06T02:25:00;1.40;;;1.30;;
351;SDS011;164;50.784;6.496;2024-03-06T02:27:27;2.50;;;1.83;;
351;SDS011;164;50.784;6.496;2024-03-06T02:29:55;1.55;;;1.30;;
351;SDS011;164;50.784;6.496;2024-03-06T02:32:23;1.25;;;1.05;;
351;SDS011;164;50.784;6.496;2024-03-06T02:34:50;1.95;;;1.40;;
351;SDS011;164;50.784;6.496;2024-03-06T02:37:18;1.58;;;1.30;;
351;SDS011;164;50.784;6.496;2024-03-06T02:39:47;1.27;;;1.17;;
351;SDS011;164;50.784;6.496;2024-03-06T02:42:14;1.38;;;1.30;;
351;SDS011;164;50.784;6.496;2024-03-06T02:44:42;3.40;;;1.35;;
351;SDS011;164;50.784;6.496;2024-03-06T02:47:09;1.38;;;1.27;;
351;SDS011;164;50.784;6.496;2024-03-06T02:49:36;2.85;;;1.70;;
351;SDS011;164;50.784;6.496;2024-03-06T02:52:03;1.65;;;1.35;;
351;SDS011;164;50.784;6.496;2024-03-06T02:54:31;2.95;;;1.85;;
351;SDS011;164;50.784;6.496;2024-03-06T02:56:59;2.08;;;1.05;;
351;SDS011;164;50.784;6.496;2024-03-06T02:59:26;1.15;;;1.10;;
351;SDS011;164;50.784;6.496;2024-03-06T03:01:54;1.40;;;1.23;;
351;SDS011;164;50.784;6.496;2024-03-06T03:04:21;2.50;;;1.85;;
351;SDS011;164;50.784;6.496;2024-03-06T03:06:48;3.28;;;1.40;;
351;SDS011;164;50.784;6.496;2024-03-06T03:09:16;1.48;;;1.40;;
351;SDS011;164;50.784;6.496;2024-03-06T03:11:43;1.52;;;1.42;;
351;SDS011;164;50.784;6.496;2024-03-06T03:14:12;1.70;;;1.25;;
351;SDS011;164;50.784;6.496;2024-03-06T03:16:39;2.47;;;1.25;;
351;SDS011;164;50.784;6.496;2024-03-06T03:19:07;1.33;;;1.10;;
351;SDS011;164;50.784;6.496;2024-03-06T03:21:34;1.50;;;0.93;;
351;SDS011;164;50.784;6.496;2024-03-06T03:24:01;1.33;;;1.20;;
351;SDS011;164;50.784;6.496;2024-03-06T03:26:29;1.27;;;1.10;;
351;SDS011;164;50.784;6.496;2024-03-06T03:28:56;1.80;;;0.88;;
351;SDS011;164;50.784;6.496;2024-03-06T03:31:25;1.50;;;1.50;;
351;SDS011;164;50.784;6.496;2024-03-06T03:33:53;1.33;;;1.15;;
351;SDS011;164;50.784;6.496;2024-03-06T03:36:20;1.10;;;1.00;;
351;SDS011;164;50.784;6.496;2024-03-06T03:38:48;2.22;;;1.88;;
351;SDS011;164;50.784;6.496;2024-03-06T03:41:15;2.22;;;1.70;;
351;SDS011;164;50.784;6.496;2024-03-06T03:43:42;2.22;;;1.55;;
351;SDS011;164;50.784;6.496;2024-03-06T03:46:09;1.77;;;1.55;;
351;SDS011;164;50.784;6.496;2024-03-06T03:48:39;4.65;;;1.63;;
351;SDS011;164;50.784;6.496;2024-03-06T03:51:06;1.98;;;1.45;;
351;SDS011;164;50.784;6.496;2024-03-06T03:53:34;2.38;;;2.03;;
351;SDS011;164;50.784;6.496;2024-03-06T03:56:01;2.40;;;1.85;;
351;SDS011;164;50.784;6.496;2024-03-06T03:58:29;2.95;;;1.35;;
351;SDS011;164;50.784;6.496;2024-03-06T04:00:56;1.42;;;1.33;;
351;SDS011;164;50.784;6.496;2024-03-06T04:03:24;2.00;;;1.60;;
351;SDS011;164;50.784;6.496;2024-03-06T04:05:52;2.88;;;2.45;;
351;SDS011;164;50.784;6.496;2024-03-06T04:08:20;1.75;;;1.70;;
351;SDS011;164;50.784;6.496;2024-03-06T04:10:47;3.17;;;1.85;;
351;SDS011;164;50.784;6.496;2024-03-06T04:13:15;2.13;;;1.85;;
351;SDS011;164;50.784;6.496;2024-03-06T04:15:44;2.65;;;1.95;;
351;SDS011;164;50.784;6.496;2024-03-06T04:18:11;1.90;;;1.73;;
351;SDS011;164;50.784;6.496;2024-03-06T04:20:39;4.75;;;2.00;;
351;SDS011;164;50.784;6.496;2024-03-06T04:23:07;1.70;;;1.30;;
351;SDS011;164;50.784;6.496;2024-03-06T04:25:34;2.35;;;1.80;;
351;SDS011;164;50.784;6.496;2024-03-06T04:28:02;2.58;;;2.13;;
351;SDS011;164;50.784;6.496;2024-03-06T04:30:29;1.70;;;1.65;;
351;SDS011;164;50.784;6.496;2024-03-06T04:32:57;2.38;;;1.80;;
351;SDS011;164;50.784;6.496;2024-03-06T04:35:24;2.28;;;2.10;;
351;SDS011;164;50.784;6.496;2024-03-06T04:37:51;2.25;;;1.50;;
351;SDS011;164;50.784;6.496;2024-03-06T04:40:20;1.95;;;1.65;;
351;SDS011;164;50.784;6.496;2024-03-06T04:42:47;1.95;;;1.85;;
351;SDS011;164;50.784;6.496;2024-03-06T04:45:15;1.50;;;1.33;;
351;SDS011;164;50.784;6.496;2024-03-06T04:47:42;1.88;;;1.30;;
351;SDS011;164;50.784;6.496;2024-03-06T04:50:10;1.67;;;1.60;;
351;SDS011;164;50.784;6.496;2024-03-06T04:52:39;1.58;;;1.40;;
351;SDS011;164;50.784;6.496;2024-03-06T04:55:07;2.58;;;1.70;;
351;SDS011;164;50.784;6.496;2024-03-06T04:57:38;1.45;;;1.35;;
351;SDS011;164;50.784;6.496;2024-03-06T05:00:08;1.88;;;1.77;;
351;SDS011;164;50.784;6.496;2024-03-06T05:02:35;2.65;;;1.70;;
351;SDS011;164;50.784;6.496;2024-03-06T05:05:03;2.28;;;1.88;;
351;SDS011;164;50.784;6.496;2024-03-06T05:07:31;3.97;;;1.95;;
351;SDS011;164;50.784;6.496;2024-03-06T05:09:58;1.98;;;1.85;;
351;SDS011;164;50.784;6.496;2024-03-06T05:12:26;1.88;;;1.73;;
351;SDS011;164;50.784;6.496;2024-03-06T05:14:55;2.65;;;1.88;;
351;SDS011;164;50.784;6.496;2024-03-06T05:17:22;2.30;;;2.10;;
351;SDS011;164;50.784;6.496;2024-03-06T05:19:50;4.13;;;2.67;;
351;SDS011;164;50.784;6.496;2024-03-06T05:22:17;1.88;;;1.50;;
351;SDS011;164;50.784;6.496;2024-03-06T05:24:45;2.90;;;1.85;;
351;SDS011;164;50.784;6.496;2024-03-06T05:27:12;2.00;;;1.67;;
351;SDS011;164;50.784;6.496;2024-03-06T05:29:42;1.92;;;1.50;;
351;SDS011;164;50.784;6.496;2024-03-06T05:32:11;1.83;;;1.15;;
351;SDS011;164;50.784;6.496;2024-03-06T05:34:38;1.42;;;1.30;;
351;SDS011;164;50.784;6.496;2024-03-06T05:37:04;1.88;;;1.80;;
351;SDS011;164;50.784;6.496;2024-03-06T05:39:32;6.15;;;2.15;;
351;SDS011;164;50.784;6.496;2024-03-06T05:42:00;2.55;;;1.60;;
351;SDS011;164;50.784;6.496;2024-03-06T05:44:29;2.58;;;1.48;;
351;SDS011;164;50.784;6.496;2024-03-06T05:46:57;2.08;;;1.95;;
351;SDS011;164;50.784;6.496;2024-03-06T05:49:25;1.50;;;1.40;;
351;SDS011;164;50.784;6.496;2024-03-06T05:51:57;2.40;;;2.20;;
351;SDS011;164;50.784;6.496;2024-03-06T05:54:24;1.30;;;1.10;;
351;SDS011;164;50.784;6.496;2024-03-06T05:56:52;2.80;;;1.58;;
351;SDS011;164;50.784;6.496;2024-03-06T05:59:20;1.90;;;1.60;;
351;SDS011;164;50.784;6.496;2024-03-06T06:01:49;2.33;;;2.17;;
351;SDS011;164;50.784;6.496;2024-03-06T06:04:16;2.95;;;2.15;;
351;SDS011;164;50.784;6.496;2024-03-06T06:06:45;4.40;;;2.78;;
351;SDS011;164;50.784;6.496;2024-03-06T06:09:13;3.60;;;2.35;;
351;SDS011;164;50.784;6.496;2024-03-06T06:11:42;2.03;;;1.80;;
351;SDS011;164;50.784;6.496;2024-03-06T06:14:09;1.73;;;1.50;;
351;SDS011;164;50.784;6.496;2024-03-06T06:16:37;2.78;;;2.13;;
351;SDS011;164;50.784;6.496;2024-03-06T06:19:05;1.83;;;1.73;;
351;SDS011;164;50.784;6.496;2024-03-06T06:21:34;1.92;;;1.73;;
351;SDS011;164;50.784;6.496;2024-03-06T06:24:03;2.00;;;1.73;;
351;SDS011;164;50.784;6.496;2024-03-06T06:26:31;3.00;;;2.42;;
351;SDS011;164;50.784;6.496;2024-03-06T06:28:58;2.10;;;1.70;;
351;SDS011;164;50.784;6.496;2024-03-06T06:31:25;2.42;;;1.83;;
351;SDS011;164;50.784;6.496;2024-03-06T06:33:53;7.18;;;2.90;;
351;SDS011;164;50.784;6.496;2024-03-06T06:36:20;2.90;;;1.88;;
351;SDS011;164;50.784;6.496;2024-03-06T06:38:48;2.35;;;2.05;;
351;SDS011;164;50.784;6.496;2024-03-06T06:41:17;1.75;;;1.35;;
351;SDS011;164;50.784;6.496;2024-03-06T06:43:44;2.40;;;2.22;;
351;SDS011;164;50.784;6.496;2024-03-06T06:46:11;3.00;;;2.80;;
351;SDS011;164;50.784;6.496;2024-03-06T06:48:39;4.22;;;2.72;;
351;SDS011;164;50.784;6.496;2024-03-06T06:51:06;2.70;;;2.50;;
351;SDS011;164;50.784;6.496;2024-03-06T06:53:33;2.95;;;1.90;;
351;SDS011;164;50.784;6.496;2024-03-06T06:56:00;2.33;;;2.15;;
351;SDS011;164;50.784;6.496;2024-03-06T06:58:29;2.28;;;1.65;;
351;SDS011;164;50.784;6.496;2024-03-06T07:00:56;4.03;;;2.75;;
351;SDS011;164;50.784;6.496;2024-03-06T07:06:27;3.38;;;2.20;;
351;SDS011;164;50.784;6.496;2024-03-06T07:08:54;2.20;;;1.80;;
351;SDS011;164;50.784;6.496;2024-03-06T07:11:22;5.00;;;2.40;;
351;SDS011;164;50.784;6.496;2024-03-06T07:13:50;3.85;;;1.95;;
351;SDS011;164;50.784;6.496;2024-03-06T07:16:18;2.88;;;2.30;;
351;SDS011;164;50.784;6.496;2024-03-06T07:18:45;3.05;;;2.00;;
351;SDS011;164;50.784;6.496;2024-03-06T07:21:13;5.60;;;3.25;;
351;SDS011;164;50.784;6.496;2024-03-06T07:23:40;2.97;;;2.78;;
351;SDS011;164;50.784;6.496;2024-03-06T07:26:07;2.63;;;2.45;;
351;SDS011;164;50.784;6.496;2024-03-06T07:28:35;4.90;;;2.83;;
351;SDS011;164;50.784;6.496;2024-03-06T07:31:04;2.75;;;2.00;;
351;SDS011;164;50.784;6.496;2024-03-06T07:33:31;4.32;;;2.70;;
351;SDS011;164;50.784;6.496;2024-03-06T07:36:03;5.38;;;2.65;;
351;SDS011;164;50.784;6.496;2024-03-06T07:38:30;4.18;;;3.20;;
351;SDS011;164;50.784;6.496;2024-03-06T07:40:57;2.75;;;2.50;;
351;SDS011;164;50.784;6.496;2024-03-06T07:43:24;2.78;;;2.55;;
351;SDS011;164;50.784;6.496;2024-03-06T07:45:52;3.13;;;2.75;;
351;SDS011;164;50.784;6.496;2024-03-06T07:48:21;4.65;;;2.60;;
351;SDS011;164;50.784;6.496;2024-03-06T07:50:48;4.78;;;3.45;;
351;SDS011;164;50.784;6.496;2024-03-06T07:53:15;3.78;;;2.92;;
351;SDS011;164;50.784;6.496;2024-03-06T07:55:42;3.85;;;2.45;;
351;SDS011;164;50.784;6.496;2024-03-06T07:58:10;2.78;;;2.60;;
351;SDS011;164;50.784;6.496;2024-03-06T08:00:37;4.03;;;2.95;;
351;SDS011;164;50.784;6.496;2024-03-06T08:03:04;4.90;;;2.95;;
351;SDS011;164;50.784;6.496;2024-03-06T08:05:33;3.42;;;2.42;;
351;SDS011;164;50.784;6.496;2024-03-06T08:08:00;3.40;;;2.90;;
351;SDS011;164;50.784;6.496;2024-03-06T08:10:28;2.67;;;2.50;;
351;SDS011;164;50.784;6.496;2024-03-06T08:12:56;2.63;;;2.13;;
351;SDS011;164;50.784;6.496;2024-03-06T08:15:23;2.83;;;2.35;;
351;SDS011;164;50.784;6.496;2024-03-06T08:17:51;3.05;;;2.20;;
351;SDS011;164;50.784;6.496;2024-03-06T08:20:18;3.28;;;2.67;;
351;SDS011;164;50.784;6.496;2024-03-06T08:22:47;3.00;;;2.80;;
351;SDS011;164;50.784;6.496;2024-03-06T08:25:14;4.95;;;2.88;;
351;SDS011;164;50.784;6.496;2024-03-06T08:27:42;3.60;;;2.00;;
351;SDS011;164;50.784;6.496;2024-03-06T08:30:09;2.30;;;2.10;;
351;SDS011;164;50.784;6.496;2024-03-06T08:32:36;4.63;;;2.92;;
351;SDS011;164;50.784;6.496;2024-03-06T08:35:04;4.20;;;2.15;;
351;SDS011;164;50.784;6.496;2024-03-06T08:37:31;6.38;;;1.77;;
351;SDS011;164;50.784;6.496;2024-03-06T08:40:00;3.38;;;1.67;;
351;SDS011;164;50.784;6.496;2024-03-06T08:42:28;3.60;;;2.50;;
351;SDS011;164;50.784;6.496;2024-03-06T08:44:55;2.83;;;1.77;;
351;SDS011;164;50.784;6.496;2024-03-06T08:47:22;2.30;;;2.17;;
351;SDS011;164;50.784;6.496;2024-03-06T08:49:50;3.17;;;2.58;;
351;SDS011;164;50.784;6.496;2024-03-06T08:52:17;2.70;;;2.22;;
351;SDS011;164;50.784;6.496;2024-03-06T08:54:44;3.20;;;1.90;;
351;SDS011;164;50.784;6.496;2024-03-06T08:57:13;5.57;;;1.77;;
351;SDS011;164;50.784;6.496;2024-03-06T08:59:41;2.83;;;2.67;;
351;SDS011;164;50.784;6.496;2024-03-06T09:02:12;3.15;;;1.90;;
351;SDS011;164;50.784;6.496;2024-03-06T09:04:39;3.42;;;1.48;;
351;SDS011;164;50.784;6.496;2024-03-06T09:07:07;2.55;;;1.83;;
351;SDS011;164;50.784;6.496;2024-03-06T09:09:34;2.92;;;2.00;;
351;SDS011;164;50.784;6.496;2024-03-06T09:12:02;2.88;;;2.00;;
351;SDS011;164;50.784;6.496;2024-03-06T09:14:31;2.97;;;1.50;;
351;SDS011;164;50.784;6.496;2024-03-06T09:16:59;2.65;;;2.05;;
351;SDS011;164;50.784;6.496;2024-03-06T09:19:26;2.85;;;1.98;;
351;SDS011;164;50.784;6.496;2024-03-06T09:21:54;2.88;;;1.42;;
351;SDS011;164;50.784;6.496;2024-03-06T09:24:21;2.65;;;2.30;;
351;SDS011;164;50.784;6.496;2024-03-06T09:26:50;3.10;;;2.08;;
351;SDS011;164;50.784;6.496;2024-03-06T09:29:17;4.53;;;2.97;;
351;SDS011;164;50.784;6.496;2024-03-06T09:31:46;4.38;;;3.35;;
351;SDS011;164;50.784;6.496;2024-03-06T09:34:14;3.33;;;1.80;;
351;SDS011;164;50.784;6.496;2024-03-06T09:36:41;2.97;;;2.30;;
351;SDS011;164;50.784;6.496;2024-03-06T09:39:10;3.63;;;2.80;;
351;SDS011;164;50.784;6.496;2024-03-06T09:41:37;4.80;;;2.90;;
351;SDS011;164;50.784;6.496;2024-03-06T09:44:06;3.55;;;2.55;;
351;SDS011;164;50.784;6.496;2024-03-06T09:46:33;2.90;;;2.72;;
351;SDS011;164;50.784;6.496;2024-03-06T09:49:03;3.25;;;2.13;;
351;SDS011;164;50.784;6.496;2024-03-06T09:51:31;3.35;;;2.72;;
351;SDS011;164;50.784;6.496;2024-03-06T09:53:58;4.70;;;3.30;;
351;SDS011;164;50.784;6.496;2024-03-06T09:56:26;4.13;;;3.42;;
351;SDS011;164;50.784;6.496;2024-03-06T09:58:56;5.18;;;2.53;;
351;SDS011;164;50.784;6.496;2024-03-06T10:01:23;6.55;;;3.00;;
351;SDS011;164;50.784;6.496;2024-03-06T10:03:51;4.93;;;3.20;;
351;SDS011;164;50.784;6.496;2024-03-06T10:06:21;4.32;;;3.40;;
351;SDS011;164;50.784;6.496;2024-03-06T10:08:50;3.85;;;2.42;;
351;SDS011;164;50.784;6.496;2024-03-06T10:11:17;3.55;;;2.08;;
351;SDS011;164;50.784;6.496;2024-03-06T10:13:45;4.18;;;2.33;;
351;SDS011;164;50.784;6.496;2024-03-06T10:16:12;2.97;;;2.60;;
351;SDS011;164;50.784;6.496;2024-03-06T10:18:39;3.53;;;2.33;;
351;SDS011;164;50.784;6.496;2024-03-06T10:21:07;2.50;;;1.70;;
351;SDS011;164;50.784;6.496;2024-03-06T10:23:36;4.25;;;2.63;;
351;SDS011;164;50.784;6.496;2024-03-06T10:26:04;2.25;;;2.00;;
351;SDS011;164;50.784;6.496;2024-03-06T10:28:34;4.00;;;2.47;;
351;SDS011;164;50.784;6.496;2024-03-06T10:31:04;3.88;;;2.60;;
351;SDS011;164;50.784;6.496;2024-03-06T10:33:32;3.63;;;2.83;;
351;SDS011;164;50.784;6.496;2024-03-06T10:36:00;3.50;;;2.75;;
351;SDS011;164;50.784;6.496;2024-03-06T10:38:29;2.90;;;2.58;;
351;SDS011;164;50.784;6.496;2024-03-06T10:41:02;3.10;;;2.75;;
351;SDS011;164;50.784;6.496;2024-03-06T10:43:32;3.67;;;3.13;;
351;SDS011;164;50.784;6.496;2024-03-06T10:46:01;3.20;;;3.00;;
351;SDS011;164;50.784;6.496;2024-03-06T10:48:32;2.58;;;2.17;;
351;SDS011;164;50.784;6.496;2024-03-06T10:51:01;6.30;;;2.83;;
351;SDS011;164;50.784;6.496;2024-03-06T10:53:29;2.70;;;2.28;;
351;SDS011;164;50.784;6.496;2024-03-06T10:55:57;2.85;;;2.10;;
351;SDS011;164;50.784;6.496;2024-03-06T10:58:25;3.13;;;2.70;;
351;SDS011;164;50.784;6.496;2024-03-06T11:00:54;3.80;;;2.45;;
351;SDS011;164;50.784;6.496;2024-03-06T11:03:23;3.45;;;2.88;;
351;SDS011;164;50.784;6.496;2024-03-06T11:05:51;4.03;;;2.42;;
351;SDS011;164;50.784;6.496;2024-03-06T11:08:19;3.03;;;2.10;;
351;SDS011;164;50.784;6.496;2024-03-06T11:10:48;3.50;;;2.25;;
351;SDS011;164;50.784;6.496;2024-03-06T11:13:21;3.05;;;2.80;;
351;SDS011;164;50.784;6.496;2024-03-06T11:15:51;2.40;;;1.90;;
351;SDS011;164;50.784;6.496;2024-03-06T11:21:28;2.30;;;2.17;;
351;SDS011;164;50.784;6.496;2024-03-06T11:24:14;2.97;;;2.83;;
351;SDS011;164;50.784;6.496;2024-03-06T11:26:43;3.25;;;2.30;;
351;SDS011;164;50.784;6.496;2024-03-06T11:29:10;2.63;;;2.20;;
351;SDS011;164;50.784;6.496;2024-03-06T11:31:39;2.47;;;2.22;;
351;SDS011;164;50.784;6.496;2024-03-06T11:34:06;2.42;;;2.22;;
351;SDS011;164;50.784;6.496;2024-03-06T11:36:35;3.53;;;3.20;;
351;SDS011;164;50.784;6.496;2024-03-06T11:39:04;3.10;;;2.30;;
351;SDS011;164;50.784;6.496;2024-03-06T11:41:31;2.65;;;2.50;;
351;SDS011;164;50.784;6.496;2024-03-06T11:43:59;3.13;;;2.40;;
351;SDS011;164;50.784;6.496;2024-03-06T11:49:15;2.40;;;1.73;;
351;SDS011;164;50.784;6.496;2024-03-06T11:51:45;2.53;;;2.00;;
351;SDS011;164;50.784;6.496;2024-03-06T11:54:13;1.85;;;1.70;;
351;SDS011;164;50.784;6.496;2024-03-06T11:56:40;2.25;;;2.10;;
351;SDS011;164;50.784;6.496;2024-03-06T11:59:09;3.33;;;2.22;;
351;SDS011;164;50.784;6.496;2024-03-06T12:01:36;4.00;;;2.30;;
351;SDS011;164;50.784;6.496;2024-03-06T12:04:04;2.75;;;1.90;;
351;SDS011;164;50.784;6.496;2024-03-06T12:06:33;2.55;;;2.35;;
351;SDS011;164;50.784;6.496;2024-03-06T12:09:00;2.00;;;1.90;;
351;SDS011;164;50.784;6.496;2024-03-06T12:11:30;4.53;;;2.75;;
351;SDS011;164;50.784;6.496;2024-03-06T12:13:59;2.63;;;2.30;;
351;SDS011;164;50.784;6.496;2024-03-06T12:16:29;2.60;;;1.65;;
351;SDS011;164;50.784;6.496;2024-03-06T12:18:59;1.75;;;1.70;;
351;SDS011;164;50.784;6.496;2024-03-06T12:21:30;4.07;;;2.35;;
351;SDS011;164;50.784;6.496;2024-03-06T12:24:06;3.20;;;2.28;;
351;SDS011;164;50.784;6.496;2024-03-06T12:26:33;2.20;;;2.03;;
351;SDS011;164;50.784;6.496;2024-03-06T12:29:04;3.17;;;2.30;;
351;SDS011;164;50.784;6.496;2024-03-06T12:31:32;3.35;;;2.45;;
351;SDS011;164;50.784;6.496;2024-03-06T12:33:59;3.03;;;2.10;;
351;SDS011;164;50.784;6.496;2024-03-06T12:36:27;3.15;;;2.40;;
351;SDS011;164;50.784;6.496;2024-03-06T12:39:01;2.45;;;2.25;;
351;SDS011;164;50.784;6.496;2024-03-06T12:41:30;3.15;;;2.35;;
351;SDS011;164;50.784;6.496;2024-03-06T12:43:57;4.50;;;2.60;;
351;SDS011;164;50.784;6.496;2024-03-06T12:46:25;2.90;;;2.40;;
351;SDS011;164;50.784;6.496;2024-03-06T12:48:53;2.50;;;2.35;;
351;SDS011;164;50.784;6.496;2024-03-06T12:51:22;3.65;;;3.50;;
351;SDS011;164;50.784;6.496;2024-03-06T12:53:49;3.03;;;2.72;;
351;SDS011;164;50.784;6.496;2024-03-06T12:56:18;3.40;;;2.50;;
351;SDS011;164;50.784;6.496;2024-03-06T12:58:46;2.42;;;2.22;;
351;SDS011;164;50.784;6.496;2024-03-06T13:01:14;4.85;;;2.85;;
351;SDS011;164;50.784;6.496;2024-03-06T13:03:41;1.75;;;1.65;;
351;SDS011;164;50.784;6.496;2024-03-06T13:06:09;2.70;;;2.00;;
351;SDS011;164;50.784;6.496;2024-03-06T13:08:36;3.42;;;2.40;;
351;SDS011;164;50.784;6.496;2024-03-06T13:11:04;2.65;;;2.17;;
351;SDS011;164;50.784;6.496;2024-03-06T13:13:31;2.33;;;1.92;;
351;SDS011;164;50.784;6.496;2024-03-06T13:16:01;7.88;;;2.70;;
351;SDS011;164;50.784;6.496;2024-03-06T13:18:31;3.22;;;2.10;;
351;SDS011;164;50.784;6.496;2024-03-06T13:20:58;5.20;;;1.92;;
351;SDS011;164;50.784;6.496;2024-03-06T13:23:26;2.30;;;2.13;;
351;SDS011;164;50.784;6.496;2024-03-06T13:25:54;3.15;;;2.00;;
351;SDS011;164;50.784;6.496;2024-03-06T13:28:21;1.50;;;1.40;;
351;SDS011;164;50.784;6.496;2024-03-06T13:30:48;2.35;;;1.25;;
351;SDS011;164;50.784;6.496;2024-03-06T13:33:18;1.90;;;1.80;;
351;SDS011;164;50.784;6.496;2024-03-06T13:35:45;2.35;;;1.77;;
351;SDS011;164;50.784;6.496;2024-03-06T13:38:12;2.63;;;2.05;;
351;SDS011;164;50.784;6.496;2024-03-06T13:40:39;2.20;;;2.00;;
351;SDS011;164;50.784;6.496;2024-03-06T13:43:07;1.20;;;1.13;;
351;SDS011;164;50.784;6.496;2024-03-06T13:45:34;1.63;;;1.17;;
351;SDS011;164;50.784;6.496;2024-03-06T13:48:02;2.95;;;1.73;;
351;SDS011;164;50.784;6.496;2024-03-06T13:50:32;2.05;;;1.63;;
351;SDS011;164;50.784;6.496;2024-03-06T13:53:00;1.50;;;1.40;;
351;SDS011;164;50.784;6.496;2024-03-06T13:55:27;2.00;;;1.65;;
351;SDS011;164;50.784;6.496;2024-03-06T13:57:58;1.25;;;1.20;;
351;SDS011;164;50.784;6.496;2024-03-06T14:00:28;1.80;;;1.77;;
351;SDS011;164;50.784;6.496;2024-03-06T14:02:55;3.88;;;2.38;;
351;SDS011;164;50.784;6.496;2024-03-06T14:05:23;1.65;;;1.55;;
351;SDS011;164;50.784;6.496;2024-03-06T14:07:52;1.95;;;1.65;;
351;SDS011;164;50.784;6.496;2024-03-06T14:10:20;2.42;;;2.05;;
351;SDS011;164;50.784;6.496;2024-03-06T14:12:49;2.13;;;1.85;;
351;SDS011;164;50.784;6.496;2024-03-06T14:15:17;2.38;;;2.17;;
351;SDS011;164;50.784;6.496;2024-03-06T14:17:44;1.50;;;1.17;;
351;SDS011;164;50.784;6.496;2024-03-06T14:20:11;2.38;;;2.10;;
351;SDS011;164;50.784;6.496;2024-03-06T14:22:40;1.65;;;1.55;;
351;SDS011;164;50.784;6.496;2024-03-06T14:25:09;1.80;;;1.35;;
351;SDS011;164;50.784;6.496;2024-03-06T14:27:37;1.98;;;1.60;;
351;SDS011;164;50.784;6.496;2024-03-06T14:30:04;2.20;;;2.00;;
351;SDS011;164;50.784;6.496;2024-03-06T14:32:33;2.55;;;2.03;;
351;SDS011;164;50.784;6.496;2024-03-06T14:35:00;2.28;;;1.85;;
351;SDS011;164;50.784;6.496;2024-03-06T14:37:27;1.98;;;1.85;;
351;SDS011;164;50.784;6.496;2024-03-06T14:39:55;1.58;;;1.48;;
351;SDS011;164;50.784;6.496;2024-03-06T14:42:23;4.18;;;2.70;;
351;SDS011;164;50.784;6.496;2024-03-06T14:44:50;2.60;;;2.25;;
351;SDS011;164;50.784;6.496;2024-03-06T14:47:18;2.67;;;2.38;;
351;SDS011;164;50.784;6.496;2024-03-06T14:49:45;3.38;;;3.15;;
351;SDS011;164;50.784;6.496;2024-03-06T14:52:12;3.13;;;2.92;;
351;SDS011;164;50.784;6.496;2024-03-06T14:54:40;5.00;;;3.33;;
351;SDS011;164;50.784;6.496;2024-03-06T14:57:08;2.35;;;2.10;;
351;SDS011;164;50.784;6.496;2024-03-06T14:59:37;3.15;;;2.40;;
351;SDS011;164;50.784;6.496;2024-03-06T15:02:05;2.00;;;1.90;;
351;SDS011;164;50.784;6.496;2024-03-06T15:04:33;2.15;;;2.00;;
351;SDS011;164;50.784;6.496;2024-03-06T15:07:00;2.00;;;1.88;;
351;SDS011;164;50.784;6.496;2024-03-06T15:09:28;2.05;;;1.92;;
351;SDS011;164;50.784;6.496;2024-03-06T15:11:57;2.80;;;1.73;;
351;SDS011;164;50.784;6.496;2024-03-06T15:14:25;2.42;;;1.70;;
351;SDS011;164;50.784;6.496;2024-03-06T15:16:54;2.38;;;1.58;;
351;SDS011;164;50.784;6.496;2024-03-06T15:19:21;1.90;;;1.85;;
351;SDS011;164;50.784;6.496;2024-03-06T15:21:48;2.17;;;2.00;;
351;SDS011;164;50.784;6.496;2024-03-06T15:24:16;2.30;;;2.13;;
351;SDS011;164;50.784;6.496;2024-03-06T15:26:43;3.50;;;2.78;;
351;SDS011;164;50.784;6.496;2024-03-06T15:29:11;2.58;;;2.35;;
351;SDS011;164;50.784;6.496;2024-03-06T15:31:38;2.38;;;2.10;;
351;SDS011;164;50.784;6.496;2024-03-06T15:34:07;2.05;;;1.88;;
351;SDS011;164;50.784;6.496;2024-03-06T15:36:34;2.63;;;2.42;;
351;SDS011;164;50.784;6.496;2024-03-06T15:39:03;5.07;;;2.47;;
351;SDS011;164;50.784;6.496;2024-03-06T15:41:31;2.63;;;2.15;;
351;SDS011;164;50.784;6.496;2024-03-06T15:43:58;2.95;;;2.65;;
351;SDS011;164;50.784;6.496;2024-03-06T15:46:26;3.22;;;3.03;;
351;SDS011;164;50.784;6.496;2024-03-06T15:48:56;2.92;;;2.72;;
351;SDS011;164;50.784;6.496;2024-03-06T15:51:24;2.92;;;2.80;;
351;SDS011;164;50.784;6.496;2024-03-06T15:53:52;2.90;;;2.70;;
351;SDS011;164;50.784;6.496;2024-03-06T15:56:19;4.03;;;3.60;;
351;SDS011;164;50.784;6.496;2024-03-06T15:58:46;4.97;;;4.45;;